首页
METAR-TAF:

METAR-TAF

机场 :

Naval Air Station Whiting Field North

米尔顿, 佛罗里达州, 美国

纬度: 30-44-00N, 经度: 087-01-00W, 海拔: 60米

当前天气观测

该预报发布于15分钟前的04:45 UTC
风速7节,风向
温度 0°C
湿度 69%
气压 1030 hPa
能見度: 16.1公里
天空无云

METAR: KNSE 220445Z 36007KT 10SM CLR 00/M05 A3042 RMK T00001050

时间: 23:00 (05:00 UTC)

预报

预报有效从21日的 23点(UTC)到 22日的 23点(UTC)
风速10节,风向
能见度10公里或以上
天空无云
从 22日的 0300点(UTC)
风速7节,风向
能见度10公里或以上
天空无云
从 22日的 1500点(UTC)
风速7节,风向东转东北,有时为14节阵风
能见度10公里或以上
散云层高于25000英尺
从 22日的 2000点(UTC)
风速5节,风向多变
能見度: 2212
散云层高于13000英尺
多云层高于25000英尺

TAF: KNSE 2123/2223 36010KT 9999 SKC QNH3038INS FM220300 01007KT 9999 SKC QNH3036INS FM221500 06007G14KT 9999 SCT250 QNH3025INS FM222000 VRB05KT 9999 SCT130 BKN250 QNH3023INS AUTOMATED SENSOR METWATCH 2205 TIL 2212 TM03/2212Z T08/2220Z FN20029

超过4000个机场的气象观测和天气预报(METAR&TAF报告)。

可查询的气象台以黄色和红色小点在地图上表示。

将鼠标移到小点上方,可查看气象台名称。

然后点击查看天气观测和预报。

如需切换地图:点击带黑十字的绿色按钮放大地图;点击带横线的绿色按钮缩小地图;或者点击绿色箭头查看邻近地区的地图。


METAR-TAF: